sensor_id;sensor_type;location;lat;lon;timestamp;P1;durP1;ratioP1;P2;durP2;ratioP2
28176;SDS011;15461;41.652;9.378;2022-08-21T00:02:15;10.52;;;5.35;;
28176;SDS011;15461;41.652;9.378;2022-08-21T00:04:42;10.02;;;5.00;;
28176;SDS011;15461;41.652;9.378;2022-08-21T00:07:09;9.23;;;5.20;;
28176;SDS011;15461;41.652;9.378;2022-08-21T00:09:35;9.15;;;5.07;;
28176;SDS011;15461;41.652;9.378;2022-08-21T00:12:02;9.93;;;5.38;;
28176;SDS011;15461;41.652;9.378;2022-08-21T00:14:29;10.93;;;5.20;;
28176;SDS011;15461;41.652;9.378;2022-08-21T00:16:54;9.23;;;4.82;;
28176;SDS011;15461;41.652;9.378;2022-08-21T00:19:20;12.32;;;5.57;;
28176;SDS011;15461;41.652;9.378;2022-08-21T00:21:50;8.35;;;5.05;;
28176;SDS011;15461;41.652;9.378;2022-08-21T00:24:18;13.02;;;5.10;;
28176;SDS011;15461;41.652;9.378;2022-08-21T00:26:44;10.25;;;4.80;;
28176;SDS011;15461;41.652;9.378;2022-08-21T00:29:12;8.85;;;5.30;;
28176;SDS011;15461;41.652;9.378;2022-08-21T00:31:38;10.38;;;5.07;;
28176;SDS011;15461;41.652;9.378;2022-08-21T00:34:05;11.20;;;4.70;;
28176;SDS011;15461;41.652;9.378;2022-08-21T00:36:31;7.63;;;5.35;;
28176;SDS011;15461;41.652;9.378;2022-08-21T00:38:58;10.23;;;5.00;;
28176;SDS011;15461;41.652;9.378;2022-08-21T00:41:23;13.23;;;5.15;;
28176;SDS011;15461;41.652;9.378;2022-08-21T00:43:49;8.60;;;5.22;;
28176;SDS011;15461;41.652;9.378;2022-08-21T00:46:16;9.05;;;4.90;;
28176;SDS011;15461;41.652;9.378;2022-08-21T00:48:42;9.60;;;5.10;;
28176;SDS011;15461;41.652;9.378;2022-08-21T00:51:10;8.90;;;4.90;;
28176;SDS011;15461;41.652;9.378;2022-08-21T00:53:42;12.83;;;5.27;;
28176;SDS011;15461;41.652;9.378;2022-08-21T00:56:10;8.32;;;5.07;;
28176;SDS011;15461;41.652;9.378;2022-08-21T00:58:39;8.20;;;4.97;;
28176;SDS011;15461;41.652;9.378;2022-08-21T01:01:07;9.23;;;5.05;;
28176;SDS011;15461;41.652;9.378;2022-08-21T01:03:34;10.07;;;5.18;;
28176;SDS011;15461;41.652;9.378;2022-08-21T01:06:01;9.30;;;4.90;;
28176;SDS011;15461;41.652;9.378;2022-08-21T01:08:29;10.02;;;5.20;;
28176;SDS011;15461;41.652;9.378;2022-08-21T01:10:56;11.85;;;5.10;;
28176;SDS011;15461;41.652;9.378;2022-08-21T01:13:25;12.77;;;5.18;;
28176;SDS011;15461;41.652;9.378;2022-08-21T01:15:53;7.88;;;5.38;;
28176;SDS011;15461;41.652;9.378;2022-08-21T01:18:21;12.30;;;5.47;;
28176;SDS011;15461;41.652;9.378;2022-08-21T01:23:28;11.70;;;5.22;;
28176;SDS011;15461;41.652;9.378;2022-08-21T01:25:54;13.57;;;5.40;;
28176;SDS011;15461;41.652;9.378;2022-08-21T01:28:19;9.13;;;5.55;;
28176;SDS011;15461;41.652;9.378;2022-08-21T01:30:47;11.18;;;5.10;;
28176;SDS011;15461;41.652;9.378;2022-08-21T01:33:16;9.65;;;4.82;;
28176;SDS011;15461;41.652;9.378;2022-08-21T01:35:44;6.95;;;4.93;;
28176;SDS011;15461;41.652;9.378;2022-08-21T01:38:10;10.20;;;4.97;;
28176;SDS011;15461;41.652;9.378;2022-08-21T01:40:36;10.38;;;5.55;;
28176;SDS011;15461;41.652;9.378;2022-08-21T01:43:02;11.10;;;5.43;;
28176;SDS011;15461;41.652;9.378;2022-08-21T01:45:28;9.88;;;5.75;;
28176;SDS011;15461;41.652;9.378;2022-08-21T01:47:54;8.25;;;5.13;;
28176;SDS011;15461;41.652;9.378;2022-08-21T01:50:20;7.72;;;4.72;;
28176;SDS011;15461;41.652;9.378;2022-08-21T01:52:46;9.13;;;5.10;;
28176;SDS011;15461;41.652;9.378;2022-08-21T01:55:13;9.38;;;5.00;;
28176;SDS011;15461;41.652;9.378;2022-08-21T01:57:40;8.90;;;4.90;;
28176;SDS011;15461;41.652;9.378;2022-08-21T02:00:07;9.27;;;5.00;;
28176;SDS011;15461;41.652;9.378;2022-08-21T02:05:06;10.43;;;4.97;;
28176;SDS011;15461;41.652;9.378;2022-08-21T02:07:38;11.68;;;5.30;;
28176;SDS011;15461;41.652;9.378;2022-08-21T02:10:06;8.57;;;4.55;;
28176;SDS011;15461;41.652;9.378;2022-08-21T02:12:34;10.63;;;4.93;;
28176;SDS011;15461;41.652;9.378;2022-08-21T02:15:00;9.25;;;4.88;;
28176;SDS011;15461;41.652;9.378;2022-08-21T02:17:36;10.35;;;5.10;;
28176;SDS011;15461;41.652;9.378;2022-08-21T02:20:03;9.55;;;4.70;;
28176;SDS011;15461;41.652;9.378;2022-08-21T02:22:30;10.93;;;4.60;;
28176;SDS011;15461;41.652;9.378;2022-08-21T02:24:56;10.55;;;5.05;;
28176;SDS011;15461;41.652;9.378;2022-08-21T02:27:22;10.60;;;4.93;;
28176;SDS011;15461;41.652;9.378;2022-08-21T02:29:49;6.85;;;5.13;;
28176;SDS011;15461;41.652;9.378;2022-08-21T02:32:15;9.02;;;5.40;;
28176;SDS011;15461;41.652;9.378;2022-08-21T02:34:41;8.10;;;4.95;;
28176;SDS011;15461;41.652;9.378;2022-08-21T02:37:07;11.38;;;5.20;;
28176;SDS011;15461;41.652;9.378;2022-08-21T02:39:32;9.23;;;4.88;;
28176;SDS011;15461;41.652;9.378;2022-08-21T02:41:58;7.55;;;4.90;;
28176;SDS011;15461;41.652;9.378;2022-08-21T02:44:25;11.70;;;4.95;;
28176;SDS011;15461;41.652;9.378;2022-08-21T02:46:51;13.18;;;5.00;;
28176;SDS011;15461;41.652;9.378;2022-08-21T02:49:16;10.32;;;4.90;;
28176;SDS011;15461;41.652;9.378;2022-08-21T02:51:42;8.05;;;4.60;;
28176;SDS011;15461;41.652;9.378;2022-08-21T02:54:08;11.93;;;4.70;;
28176;SDS011;15461;41.652;9.378;2022-08-21T02:56:34;9.95;;;5.03;;
28176;SDS011;15461;41.652;9.378;2022-08-21T02:59:00;13.80;;;4.95;;
28176;SDS011;15461;41.652;9.378;2022-08-21T03:01:26;13.52;;;4.90;;
28176;SDS011;15461;41.652;9.378;2022-08-21T03:03:52;9.68;;;4.65;;
28176;SDS011;15461;41.652;9.378;2022-08-21T03:06:19;13.57;;;4.65;;
28176;SDS011;15461;41.652;9.378;2022-08-21T03:08:46;11.73;;;4.80;;
28176;SDS011;15461;41.652;9.378;2022-08-21T03:11:13;8.70;;;4.90;;
28176;SDS011;15461;41.652;9.378;2022-08-21T03:13:40;15.88;;;5.50;;
28176;SDS011;15461;41.652;9.378;2022-08-21T03:16:06;7.03;;;4.30;;
28176;SDS011;15461;41.652;9.378;2022-08-21T03:18:32;11.95;;;4.82;;
28176;SDS011;15461;41.652;9.378;2022-08-21T03:20:59;9.20;;;4.72;;
28176;SDS011;15461;41.652;9.378;2022-08-21T03:23:25;9.40;;;5.00;;
28176;SDS011;15461;41.652;9.378;2022-08-21T03:25:51;10.20;;;4.38;;
28176;SDS011;15461;41.652;9.378;2022-08-21T03:28:18;12.30;;;4.90;;
28176;SDS011;15461;41.652;9.378;2022-08-21T03:30:47;9.00;;;4.80;;
28176;SDS011;15461;41.652;9.378;2022-08-21T03:33:14;10.30;;;5.50;;
28176;SDS011;15461;41.652;9.378;2022-08-21T03:35:41;8.88;;;4.82;;
28176;SDS011;15461;41.652;9.378;2022-08-21T03:38:08;6.85;;;4.78;;
28176;SDS011;15461;41.652;9.378;2022-08-21T03:40:34;9.98;;;4.60;;
28176;SDS011;15461;41.652;9.378;2022-08-21T03:43:00;5.53;;;4.20;;
28176;SDS011;15461;41.652;9.378;2022-08-21T03:45:26;8.65;;;4.70;;
28176;SDS011;15461;41.652;9.378;2022-08-21T03:47:56;9.40;;;4.97;;
28176;SDS011;15461;41.652;9.378;2022-08-21T03:50:26;8.90;;;4.78;;
28176;SDS011;15461;41.652;9.378;2022-08-21T03:52:56;7.95;;;4.88;;
28176;SDS011;15461;41.652;9.378;2022-08-21T03:55:22;11.05;;;4.53;;
28176;SDS011;15461;41.652;9.378;2022-08-21T03:57:50;7.45;;;4.78;;
28176;SDS011;15461;41.652;9.378;2022-08-21T04:00:16;6.50;;;3.97;;
28176;SDS011;15461;41.652;9.378;2022-08-21T04:02:44;11.85;;;4.28;;
28176;SDS011;15461;41.652;9.378;2022-08-21T04:05:10;8.88;;;4.25;;
28176;SDS011;15461;41.652;9.378;2022-08-21T04:07:38;9.55;;;4.13;;
28176;SDS011;15461;41.652;9.378;2022-08-21T04:10:05;9.30;;;4.32;;
28176;SDS011;15461;41.652;9.378;2022-08-21T04:12:31;7.65;;;4.13;;
28176;SDS011;15461;41.652;9.378;2022-08-21T04:14:58;9.95;;;4.20;;
28176;SDS011;15461;41.652;9.378;2022-08-21T04:17:24;10.05;;;3.97;;
28176;SDS011;15461;41.652;9.378;2022-08-21T04:19:50;7.85;;;4.00;;
28176;SDS011;15461;41.652;9.378;2022-08-21T04:22:16;12.68;;;4.60;;
28176;SDS011;15461;41.652;9.378;2022-08-21T04:24:41;14.35;;;3.70;;
28176;SDS011;15461;41.652;9.378;2022-08-21T04:27:08;11.75;;;4.25;;
28176;SDS011;15461;41.652;9.378;2022-08-21T04:29:33;9.57;;;3.85;;
28176;SDS011;15461;41.652;9.378;2022-08-21T04:31:59;7.85;;;3.90;;
28176;SDS011;15461;41.652;9.378;2022-08-21T04:34:25;13.27;;;4.85;;
28176;SDS011;15461;41.652;9.378;2022-08-21T04:36:51;10.60;;;3.65;;
28176;SDS011;15461;41.652;9.378;2022-08-21T04:39:17;12.90;;;4.38;;
28176;SDS011;15461;41.652;9.378;2022-08-21T04:41:43;9.20;;;3.78;;
28176;SDS011;15461;41.652;9.378;2022-08-21T04:44:09;44.38;;;5.68;;
28176;SDS011;15461;41.652;9.378;2022-08-21T04:46:35;13.02;;;3.80;;
28176;SDS011;15461;41.652;9.378;2022-08-21T04:49:00;7.95;;;4.00;;
28176;SDS011;15461;41.652;9.378;2022-08-21T04:51:31;9.93;;;3.80;;
28176;SDS011;15461;41.652;9.378;2022-08-21T04:54:01;6.95;;;3.50;;
28176;SDS011;15461;41.652;9.378;2022-08-21T04:56:30;184.88;;;12.60;;
28176;SDS011;15461;41.652;9.378;2022-08-21T04:59:04;36.08;;;4.90;;
28176;SDS011;15461;41.652;9.378;2022-08-21T05:01:35;18.65;;;4.00;;
28176;SDS011;15461;41.652;9.378;2022-08-21T05:04:03;8.88;;;3.53;;
28176;SDS011;15461;41.652;9.378;2022-08-21T05:06:31;10.45;;;4.07;;
28176;SDS011;15461;41.652;9.378;2022-08-21T05:09:02;12.00;;;3.72;;
28176;SDS011;15461;41.652;9.378;2022-08-21T05:11:29;15.40;;;3.75;;
28176;SDS011;15461;41.652;9.378;2022-08-21T05:13:56;7.88;;;3.60;;
28176;SDS011;15461;41.652;9.378;2022-08-21T05:16:22;6.47;;;3.50;;
28176;SDS011;15461;41.652;9.378;2022-08-21T05:18:48;6.22;;;3.60;;
28176;SDS011;15461;41.652;9.378;2022-08-21T05:21:14;8.98;;;3.88;;
28176;SDS011;15461;41.652;9.378;2022-08-21T05:23:40;6.25;;;3.90;;
28176;SDS011;15461;41.652;9.378;2022-08-21T05:26:05;9.00;;;3.42;;
28176;SDS011;15461;41.652;9.378;2022-08-21T05:28:31;8.05;;;3.70;;
28176;SDS011;15461;41.652;9.378;2022-08-21T05:30:57;7.95;;;3.88;;
28176;SDS011;15461;41.652;9.378;2022-08-21T05:33:23;6.97;;;3.63;;
28176;SDS011;15461;41.652;9.378;2022-08-21T05:35:50;5.82;;;3.88;;
28176;SDS011;15461;41.652;9.378;2022-08-21T05:38:18;7.57;;;3.58;;
28176;SDS011;15461;41.652;9.378;2022-08-21T05:40:44;7.35;;;3.92;;
28176;SDS011;15461;41.652;9.378;2022-08-21T05:43:10;8.75;;;3.75;;
28176;SDS011;15461;41.652;9.378;2022-08-21T05:45:36;7.00;;;3.70;;
28176;SDS011;15461;41.652;9.378;2022-08-21T05:48:10;5.80;;;3.33;;
28176;SDS011;15461;41.652;9.378;2022-08-21T05:50:41;6.18;;;3.60;;
28176;SDS011;15461;41.652;9.378;2022-08-21T05:53:08;45.33;;;9.27;;
28176;SDS011;15461;41.652;9.378;2022-08-21T05:55:35;29.20;;;7.57;;
28176;SDS011;15461;41.652;9.378;2022-08-21T05:58:02;40.20;;;8.45;;
28176;SDS011;15461;41.652;9.378;2022-08-21T06:00:29;8.88;;;3.95;;
28176;SDS011;15461;41.652;9.378;2022-08-21T06:02:55;9.05;;;3.75;;
28176;SDS011;15461;41.652;9.378;2022-08-21T06:05:21;13.73;;;4.05;;
28176;SDS011;15461;41.652;9.378;2022-08-21T06:07:47;10.75;;;3.65;;
28176;SDS011;15461;41.652;9.378;2022-08-21T06:10:13;7.88;;;4.07;;
28176;SDS011;15461;41.652;9.378;2022-08-21T06:12:39;13.43;;;6.25;;
28176;SDS011;15461;41.652;9.378;2022-08-21T06:15:05;6.43;;;3.10;;
28176;SDS011;15461;41.652;9.378;2022-08-21T06:17:31;14.30;;;4.78;;
28176;SDS011;15461;41.652;9.378;2022-08-21T06:19:57;6.32;;;3.97;;
28176;SDS011;15461;41.652;9.378;2022-08-21T06:22:23;7.18;;;3.08;;
28176;SDS011;15461;41.652;9.378;2022-08-21T06:24:49;5.90;;;2.85;;
28176;SDS011;15461;41.652;9.378;2022-08-21T06:27:16;6.57;;;2.83;;
28176;SDS011;15461;41.652;9.378;2022-08-21T06:29:43;7.03;;;2.88;;
28176;SDS011;15461;41.652;9.378;2022-08-21T06:32:10;8.98;;;3.20;;
28176;SDS011;15461;41.652;9.378;2022-08-21T06:34:38;7.10;;;2.65;;
28176;SDS011;15461;41.652;9.378;2022-08-21T06:37:05;5.03;;;2.70;;
28176;SDS011;15461;41.652;9.378;2022-08-21T06:39:31;6.85;;;3.20;;
28176;SDS011;15461;41.652;9.378;2022-08-21T06:41:57;5.00;;;2.90;;
28176;SDS011;15461;41.652;9.378;2022-08-21T06:44:27;6.70;;;2.80;;
28176;SDS011;15461;41.652;9.378;2022-08-21T06:46:54;6.15;;;2.78;;
28176;SDS011;15461;41.652;9.378;2022-08-21T06:49:20;10.70;;;3.30;;
28176;SDS011;15461;41.652;9.378;2022-08-21T06:51:46;6.88;;;2.83;;
28176;SDS011;15461;41.652;9.378;2022-08-21T06:54:12;6.88;;;2.95;;
28176;SDS011;15461;41.652;9.378;2022-08-21T06:56:39;6.78;;;2.63;;
28176;SDS011;15461;41.652;9.378;2022-08-21T06:59:05;6.63;;;2.80;;
28176;SDS011;15461;41.652;9.378;2022-08-21T07:01:32;8.98;;;2.55;;
28176;SDS011;15461;41.652;9.378;2022-08-21T07:03:58;7.18;;;2.40;;
28176;SDS011;15461;41.652;9.378;2022-08-21T07:06:24;6.45;;;2.30;;
28176;SDS011;15461;41.652;9.378;2022-08-21T07:08:50;8.68;;;2.47;;
28176;SDS011;15461;41.652;9.378;2022-08-21T07:11:17;9.18;;;2.47;;
28176;SDS011;15461;41.652;9.378;2022-08-21T07:13:46;8.15;;;2.50;;
28176;SDS011;15461;41.652;9.378;2022-08-21T07:16:12;5.97;;;2.20;;
28176;SDS011;15461;41.652;9.378;2022-08-21T07:18:38;11.85;;;2.60;;
28176;SDS011;15461;41.652;9.378;2022-08-21T07:21:05;7.55;;;2.35;;
28176;SDS011;15461;41.652;9.378;2022-08-21T07:23:33;10.50;;;2.53;;
28176;SDS011;15461;41.652;9.378;2022-08-21T07:26:05;7.97;;;2.53;;
28176;SDS011;15461;41.652;9.378;2022-08-21T07:28:31;9.27;;;2.47;;
28176;SDS011;15461;41.652;9.378;2022-08-21T07:30:58;5.13;;;2.10;;
28176;SDS011;15461;41.652;9.378;2022-08-21T07:33:27;11.60;;;2.47;;
28176;SDS011;15461;41.652;9.378;2022-08-21T07:35:55;4.20;;;2.03;;
28176;SDS011;15461;41.652;9.378;2022-08-21T07:38:21;5.57;;;1.98;;
28176;SDS011;15461;41.652;9.378;2022-08-21T07:40:50;16.60;;;2.72;;
28176;SDS011;15461;41.652;9.378;2022-08-21T07:43:17;15.55;;;2.53;;
28176;SDS011;15461;41.652;9.378;2022-08-21T07:45:44;6.32;;;2.20;;
28176;SDS011;15461;41.652;9.378;2022-08-21T07:48:11;5.40;;;1.88;;
28176;SDS011;15461;41.652;9.378;2022-08-21T07:50:37;7.82;;;2.00;;
28176;SDS011;15461;41.652;9.378;2022-08-21T07:53:04;10.93;;;2.83;;
28176;SDS011;15461;41.652;9.378;2022-08-21T07:55:30;7.55;;;2.10;;
28176;SDS011;15461;41.652;9.378;2022-08-21T07:57:56;7.03;;;1.88;;
28176;SDS011;15461;41.652;9.378;2022-08-21T08:00:23;6.43;;;1.98;;
28176;SDS011;15461;41.652;9.378;2022-08-21T08:02:50;8.23;;;1.85;;
28176;SDS011;15461;41.652;9.378;2022-08-21T08:05:19;10.77;;;2.03;;
28176;SDS011;15461;41.652;9.378;2022-08-21T08:07:47;8.10;;;1.90;;
28176;SDS011;15461;41.652;9.378;2022-08-21T08:10:13;5.75;;;1.80;;
28176;SDS011;15461;41.652;9.378;2022-08-21T08:12:41;16.85;;;2.40;;
28176;SDS011;15461;41.652;9.378;2022-08-21T08:15:09;7.10;;;2.13;;
28176;SDS011;15461;41.652;9.378;2022-08-21T08:17:39;8.27;;;1.98;;
28176;SDS011;15461;41.652;9.378;2022-08-21T08:20:06;10.07;;;2.28;;
28176;SDS011;15461;41.652;9.378;2022-08-21T08:22:34;6.90;;;2.17;;
28176;SDS011;15461;41.652;9.378;2022-08-21T08:25:00;8.23;;;1.83;;
28176;SDS011;15461;41.652;9.378;2022-08-21T08:27:27;10.50;;;2.20;;
28176;SDS011;15461;41.652;9.378;2022-08-21T08:29:53;6.57;;;2.10;;
28176;SDS011;15461;41.652;9.378;2022-08-21T08:32:19;15.02;;;2.50;;
28176;SDS011;15461;41.652;9.378;2022-08-21T08:34:45;11.35;;;2.30;;
28176;SDS011;15461;41.652;9.378;2022-08-21T08:37:12;4.45;;;2.00;;
28176;SDS011;15461;41.652;9.378;2022-08-21T08:39:38;8.70;;;2.25;;
28176;SDS011;15461;41.652;9.378;2022-08-21T08:42:05;8.20;;;1.95;;
28176;SDS011;15461;41.652;9.378;2022-08-21T08:44:32;8.77;;;2.10;;
28176;SDS011;15461;41.652;9.378;2022-08-21T08:46:59;5.93;;;1.90;;
28176;SDS011;15461;41.652;9.378;2022-08-21T08:49:29;5.10;;;2.03;;
28176;SDS011;15461;41.652;9.378;2022-08-21T08:54:33;5.50;;;1.80;;
28176;SDS011;15461;41.652;9.378;2022-08-21T08:57:10;5.10;;;1.55;;
28176;SDS011;15461;41.652;9.378;2022-08-21T08:59:45;6.10;;;1.60;;
28176;SDS011;15461;41.652;9.378;2022-08-21T09:02:14;10.30;;;1.92;;
28176;SDS011;15461;41.652;9.378;2022-08-21T09:04:41;8.75;;;1.73;;
28176;SDS011;15461;41.652;9.378;2022-08-21T09:12:17;2.63;;;1.17;;
28176;SDS011;15461;41.652;9.378;2022-08-21T09:17:39;8.55;;;1.00;;
28176;SDS011;15461;41.652;9.378;2022-08-21T09:20:11;1.67;;;0.85;;
28176;SDS011;15461;41.652;9.378;2022-08-21T09:23:22;0.70;;;0.70;;
28176;SDS011;15461;41.652;9.378;2022-08-21T09:28:43;7.30;;;1.00;;
28176;SDS011;15461;41.652;9.378;2022-08-21T09:31:24;2.25;;;0.93;;
28176;SDS011;15461;41.652;9.378;2022-08-21T09:34:06;4.57;;;1.17;;
28176;SDS011;15461;41.652;9.378;2022-08-21T09:36:44;2.10;;;0.80;;
28176;SDS011;15461;41.652;9.378;2022-08-21T09:39:21;3.50;;;1.10;;
28176;SDS011;15461;41.652;9.378;2022-08-21T09:45:09;1.67;;;0.90;;
28176;SDS011;15461;41.652;9.378;2022-08-21T09:47:40;2.55;;;0.88;;
28176;SDS011;15461;41.652;9.378;2022-08-21T09:50:09;1.38;;;0.80;;
28176;SDS011;15461;41.652;9.378;2022-08-21T09:52:47;4.55;;;1.17;;
28176;SDS011;15461;41.652;9.378;2022-08-21T09:55:18;5.15;;;0.82;;
28176;SDS011;15461;41.652;9.378;2022-08-21T09:58:06;4.95;;;1.30;;
28176;SDS011;15461;41.652;9.378;2022-08-21T10:00:33;4.97;;;1.45;;
28176;SDS011;15461;41.652;9.378;2022-08-21T10:03:17;6.25;;;1.38;;
28176;SDS011;15461;41.652;9.378;2022-08-21T10:08:31;6.97;;;1.70;;
28176;SDS011;15461;41.652;9.378;2022-08-21T10:11:04;5.85;;;1.35;;
28176;SDS011;15461;41.652;9.378;2022-08-21T10:19:21;8.07;;;1.65;;
28176;SDS011;15461;41.652;9.378;2022-08-21T10:21:59;4.88;;;1.40;;
28176;SDS011;15461;41.652;9.378;2022-08-21T10:24:46;6.13;;;1.30;;
28176;SDS011;15461;41.652;9.378;2022-08-21T10:38:16;10.32;;;1.90;;
28176;SDS011;15461;41.652;9.378;2022-08-21T10:47:26;7.15;;;1.73;;
28176;SDS011;15461;41.652;9.378;2022-08-21T10:52:51;6.82;;;1.42;;
28176;SDS011;15461;41.652;9.378;2022-08-21T10:55:35;5.90;;;1.60;;
28176;SDS011;15461;41.652;9.378;2022-08-21T10:58:23;6.18;;;1.52;;
28176;SDS011;15461;41.652;9.378;2022-08-21T11:01:04;5.70;;;1.85;;
28176;SDS011;15461;41.652;9.378;2022-08-21T11:03:50;8.68;;;1.70;;
28176;SDS011;15461;41.652;9.378;2022-08-21T11:06:27;9.60;;;2.00;;
28176;SDS011;15461;41.652;9.378;2022-08-21T11:08:57;7.97;;;1.73;;
28176;SDS011;15461;41.652;9.378;2022-08-21T11:11:31;8.05;;;1.77;;
28176;SDS011;15461;41.652;9.378;2022-08-21T11:16:57;7.70;;;1.58;;
28176;SDS011;15461;41.652;9.378;2022-08-21T11:27:52;7.43;;;1.50;;
28176;SDS011;15461;41.652;9.378;2022-08-21T11:31:06;7.63;;;1.70;;
28176;SDS011;15461;41.652;9.378;2022-08-21T11:47:51;6.78;;;1.60;;
28176;SDS011;15461;41.652;9.378;2022-08-21T11:50:24;6.10;;;1.60;;
28176;SDS011;15461;41.652;9.378;2022-08-21T11:53:01;12.10;;;1.98;;
28176;SDS011;15461;41.652;9.378;2022-08-21T11:55:32;5.95;;;1.60;;
28176;SDS011;15461;41.652;9.378;2022-08-21T11:58:09;10.60;;;1.85;;
28176;SDS011;15461;41.652;9.378;2022-08-21T12:03:17;4.60;;;1.40;;
28176;SDS011;15461;41.652;9.378;2022-08-21T12:05:54;9.55;;;1.50;;
28176;SDS011;15461;41.652;9.378;2022-08-21T12:13:37;7.82;;;1.67;;
28176;SDS011;15461;41.652;9.378;2022-08-21T12:16:14;10.35;;;1.83;;
28176;SDS011;15461;41.652;9.378;2022-08-21T12:19:02;10.95;;;1.75;;
28176;SDS011;15461;41.652;9.378;2022-08-21T12:21:29;4.32;;;1.20;;
28176;SDS011;15461;41.652;9.378;2022-08-21T12:26:50;5.93;;;1.23;;
28176;SDS011;15461;41.652;9.378;2022-08-21T12:29:39;5.60;;;1.52;;
28176;SDS011;15461;41.652;9.378;2022-08-21T12:40:31;4.90;;;1.50;;
28176;SDS011;15461;41.652;9.378;2022-08-21T12:43:11;5.43;;;1.33;;
28176;SDS011;15461;41.652;9.378;2022-08-21T12:45:44;7.05;;;1.17;;
28176;SDS011;15461;41.652;9.378;2022-08-21T12:51:10;5.05;;;1.20;;
28176;SDS011;15461;41.652;9.378;2022-08-21T12:53:54;7.22;;;1.23;;
28176;SDS011;15461;41.652;9.378;2022-08-21T12:56:23;7.40;;;1.38;;
28176;SDS011;15461;41.652;9.378;2022-08-21T12:58:56;4.40;;;1.30;;
28176;SDS011;15461;41.652;9.378;2022-08-21T13:01:29;7.90;;;1.38;;
28176;SDS011;15461;41.652;9.378;2022-08-21T13:04:17;7.95;;;1.30;;
28176;SDS011;15461;41.652;9.378;2022-08-21T13:06:49;8.18;;;1.40;;
28176;SDS011;15461;41.652;9.378;2022-08-21T13:09:18;5.10;;;1.02;;
28176;SDS011;15461;41.652;9.378;2022-08-21T13:11:51;5.50;;;1.40;;
28176;SDS011;15461;41.652;9.378;2022-08-21T13:16:56;8.13;;;1.43;;
28176;SDS011;15461;41.652;9.378;2022-08-21T13:19:23;7.10;;;1.38;;
28176;SDS011;15461;41.652;9.378;2022-08-21T13:21:51;5.63;;;1.60;;
28176;SDS011;15461;41.652;9.378;2022-08-21T13:24:38;8.00;;;1.23;;
28176;SDS011;15461;41.652;9.378;2022-08-21T13:27:15;7.50;;;1.48;;
28176;SDS011;15461;41.652;9.378;2022-08-21T13:30:00;10.88;;;1.60;;
28176;SDS011;15461;41.652;9.378;2022-08-21T13:32:30;15.43;;;2.00;;
28176;SDS011;15461;41.652;9.378;2022-08-21T13:34:58;9.23;;;1.98;;
28176;SDS011;15461;41.652;9.378;2022-08-21T13:37:33;7.43;;;1.70;;
28176;SDS011;15461;41.652;9.378;2022-08-21T13:40:00;7.45;;;1.63;;
28176;SDS011;15461;41.652;9.378;2022-08-21T13:42:29;8.70;;;1.92;;
28176;SDS011;15461;41.652;9.378;2022-08-21T13:44:56;9.05;;;2.03;;
28176;SDS011;15461;41.652;9.378;2022-08-21T13:47:22;5.88;;;1.40;;
28176;SDS011;15461;41.652;9.378;2022-08-21T13:49:49;15.48;;;2.15;;
28176;SDS011;15461;41.652;9.378;2022-08-21T13:52:18;8.57;;;1.83;;
28176;SDS011;15461;41.652;9.378;2022-08-21T13:55:09;6.25;;;1.40;;
28176;SDS011;15461;41.652;9.378;2022-08-21T13:57:41;8.93;;;1.63;;
28176;SDS011;15461;41.652;9.378;2022-08-21T14:00:15;14.05;;;1.90;;
28176;SDS011;15461;41.652;9.378;2022-08-21T14:02:43;8.63;;;2.40;;
28176;SDS011;15461;41.652;9.378;2022-08-21T14:05:16;8.77;;;1.90;;
28176;SDS011;15461;41.652;9.378;2022-08-21T14:08:12;9.10;;;2.25;;
28176;SDS011;15461;41.652;9.378;2022-08-21T14:10:42;12.10;;;2.05;;
28176;SDS011;15461;41.652;9.378;2022-08-21T14:13:32;10.38;;;1.90;;
28176;SDS011;15461;41.652;9.378;2022-08-21T14:16:19;7.90;;;2.08;;
28176;SDS011;15461;41.652;9.378;2022-08-21T14:19:07;9.32;;;1.92;;
28176;SDS011;15461;41.652;9.378;2022-08-21T14:21:44;10.15;;;2.05;;
28176;SDS011;15461;41.652;9.378;2022-08-21T14:24:26;11.98;;;2.10;;
28176;SDS011;15461;41.652;9.378;2022-08-21T14:26:57;10.23;;;2.00;;
28176;SDS011;15461;41.652;9.378;2022-08-21T14:29:32;9.73;;;2.10;;
28176;SDS011;15461;41.652;9.378;2022-08-21T14:32:00;7.90;;;1.65;;
28176;SDS011;15461;41.652;9.378;2022-08-21T14:34:41;7.70;;;1.80;;
28176;SDS011;15461;41.652;9.378;2022-08-21T14:37:07;13.10;;;2.13;;
28176;SDS011;15461;41.652;9.378;2022-08-21T14:39:33;7.75;;;2.00;;
28176;SDS011;15461;41.652;9.378;2022-08-21T14:41:59;17.70;;;1.80;;
28176;SDS011;15461;41.652;9.378;2022-08-21T14:44:26;12.40;;;2.33;;
28176;SDS011;15461;41.652;9.378;2022-08-21T14:46:52;6.72;;;1.55;;
28176;SDS011;15461;41.652;9.378;2022-08-21T14:49:19;14.02;;;2.33;;
28176;SDS011;15461;41.652;9.378;2022-08-21T14:51:45;11.13;;;1.73;;
28176;SDS011;15461;41.652;9.378;2022-08-21T14:54:10;6.65;;;1.88;;
28176;SDS011;15461;41.652;9.378;2022-08-21T14:56:36;10.32;;;2.28;;
28176;SDS011;15461;41.652;9.378;2022-08-21T14:59:04;10.32;;;1.88;;
28176;SDS011;15461;41.652;9.378;2022-08-21T15:01:32;13.55;;;2.47;;
28176;SDS011;15461;41.652;9.378;2022-08-21T15:04:00;8.02;;;1.75;;
28176;SDS011;15461;41.652;9.378;2022-08-21T15:06:26;12.13;;;2.47;;
28176;SDS011;15461;41.652;9.378;2022-08-21T15:08:52;15.77;;;2.60;;
28176;SDS011;15461;41.652;9.378;2022-08-21T15:11:19;9.43;;;2.17;;
28176;SDS011;15461;41.652;9.378;2022-08-21T15:13:47;10.70;;;2.28;;
28176;SDS011;15461;41.652;9.378;2022-08-21T15:16:18;13.70;;;2.50;;
28176;SDS011;15461;41.652;9.378;2022-08-21T15:18:44;7.65;;;2.00;;
28176;SDS011;15461;41.652;9.378;2022-08-21T15:21:10;15.88;;;2.45;;
28176;SDS011;15461;41.652;9.378;2022-08-21T15:23:36;14.63;;;2.60;;
28176;SDS011;15461;41.652;9.378;2022-08-21T15:26:02;8.63;;;2.25;;
28176;SDS011;15461;41.652;9.378;2022-08-21T15:28:28;11.00;;;2.15;;
28176;SDS011;15461;41.652;9.378;2022-08-21T15:30:55;11.15;;;2.83;;
28176;SDS011;15461;41.652;9.378;2022-08-21T15:33:21;10.38;;;2.45;;
28176;SDS011;15461;41.652;9.378;2022-08-21T15:35:47;15.20;;;2.53;;
28176;SDS011;15461;41.652;9.378;2022-08-21T15:38:14;25.88;;;2.65;;
28176;SDS011;15461;41.652;9.378;2022-08-21T15:40:40;10.38;;;2.35;;
28176;SDS011;15461;41.652;9.378;2022-08-21T15:43:10;10.95;;;2.40;;
28176;SDS011;15461;41.652;9.378;2022-08-21T15:45:50;13.55;;;2.63;;
28176;SDS011;15461;41.652;9.378;2022-08-21T15:48:16;11.60;;;1.83;;
28176;SDS011;15461;41.652;9.378;2022-08-21T15:50:42;13.82;;;2.28;;
28176;SDS011;15461;41.652;9.378;2022-08-21T15:53:08;13.45;;;2.58;;
28176;SDS011;15461;41.652;9.378;2022-08-21T15:55:34;10.82;;;2.05;;
28176;SDS011;15461;41.652;9.378;2022-08-21T15:58:00;15.10;;;3.13;;
28176;SDS011;15461;41.652;9.378;2022-08-21T16:00:28;20.70;;;3.42;;
28176;SDS011;15461;41.652;9.378;2022-08-21T16:02:59;14.38;;;2.38;;
28176;SDS011;15461;41.652;9.378;2022-08-21T16:05:28;12.43;;;2.35;;
28176;SDS011;15461;41.652;9.378;2022-08-21T16:07:54;9.25;;;2.40;;
28176;SDS011;15461;41.652;9.378;2022-08-21T16:10:21;13.48;;;2.78;;
28176;SDS011;15461;41.652;9.378;2022-08-21T16:12:55;16.55;;;3.35;;
28176;SDS011;15461;41.652;9.378;2022-08-21T16:15:30;10.93;;;2.67;;
28176;SDS011;15461;41.652;9.378;2022-08-21T16:17:56;12.18;;;2.58;;
28176;SDS011;15461;41.652;9.378;2022-08-21T16:20:23;14.75;;;2.85;;
28176;SDS011;15461;41.652;9.378;2022-08-21T16:22:52;10.02;;;2.67;;
28176;SDS011;15461;41.652;9.378;2022-08-21T16:25:19;10.40;;;2.03;;
28176;SDS011;15461;41.652;9.378;2022-08-21T16:27:46;19.27;;;2.33;;
28176;SDS011;15461;41.652;9.378;2022-08-21T16:30:16;15.63;;;2.53;;
28176;SDS011;15461;41.652;9.378;2022-08-21T16:32:43;20.40;;;3.20;;
28176;SDS011;15461;41.652;9.378;2022-08-21T16:35:12;18.70;;;2.67;;
28176;SDS011;15461;41.652;9.378;2022-08-21T16:37:41;17.25;;;2.70;;